sensor_id;sensor_type;location;lat;lon;timestamp;pressure;altitude;pressure_sealevel;temperature
69590;BMP180;56792;50.644;17.984;2023-12-14T00:00:48;98351.00;;;4.50
69590;BMP180;56792;50.644;17.984;2023-12-14T00:03:19;98351.20;;;4.50
69590;BMP180;56792;50.644;17.984;2023-12-14T00:05:50;98359.40;;;4.50
69590;BMP180;56792;50.644;17.984;2023-12-14T00:08:21;98363.00;;;4.50
69590;BMP180;56792;50.644;17.984;2023-12-14T00:10:52;98362.80;;;4.50
69590;BMP180;56792;50.644;17.984;2023-12-14T00:13:23;98366.80;;;4.50
69590;BMP180;56792;50.644;17.984;2023-12-14T00:15:54;98373.60;;;4.42
69590;BMP180;56792;50.644;17.984;2023-12-14T00:18:25;98369.60;;;4.40
69590;BMP180;56792;50.644;17.984;2023-12-14T00:20:56;98371.00;;;4.40
69590;BMP180;56792;50.644;17.984;2023-12-14T00:23:27;98365.80;;;4.40
69590;BMP180;56792;50.644;17.984;2023-12-14T00:25:58;98369.00;;;4.40
69590;BMP180;56792;50.644;17.984;2023-12-14T00:28:29;98368.40;;;4.40
69590;BMP180;56792;50.644;17.984;2023-12-14T00:31:00;98370.20;;;4.40
69590;BMP180;56792;50.644;17.984;2023-12-14T00:33:31;98373.60;;;4.40
69590;BMP180;56792;50.644;17.984;2023-12-14T00:36:03;98375.60;;;4.38
69590;BMP180;56792;50.644;17.984;2023-12-14T00:38:34;98378.00;;;4.32
69590;BMP180;56792;50.644;17.984;2023-12-14T00:41:06;98382.60;;;4.32
69590;BMP180;56792;50.644;17.984;2023-12-14T00:43:37;98384.80;;;4.30
69590;BMP180;56792;50.644;17.984;2023-12-14T00:46:08;98383.40;;;4.30
69590;BMP180;56792;50.644;17.984;2023-12-14T00:48:40;98382.20;;;4.30
69590;BMP180;56792;50.644;17.984;2023-12-14T00:51:11;98382.40;;;4.30
69590;BMP180;56792;50.644;17.984;2023-12-14T00:53:42;98387.60;;;4.30
69590;BMP180;56792;50.644;17.984;2023-12-14T00:56:13;98392.00;;;4.30
69590;BMP180;56792;50.644;17.984;2023-12-14T00:58:44;98393.80;;;4.20
69590;BMP180;56792;50.644;17.984;2023-12-14T01:01:15;98398.60;;;4.20
69590;BMP180;56792;50.644;17.984;2023-12-14T01:03:46;98401.40;;;4.28
69590;BMP180;56792;50.644;17.984;2023-12-14T01:06:17;98410.60;;;4.30
69590;BMP180;56792;50.644;17.984;2023-12-14T01:08:48;98410.20;;;4.30
69590;BMP180;56792;50.644;17.984;2023-12-14T01:11:19;98416.40;;;4.30
69590;BMP180;56792;50.644;17.984;2023-12-14T01:13:50;98418.80;;;4.30
69590;BMP180;56792;50.644;17.984;2023-12-14T01:16:21;98427.20;;;4.22
69590;BMP180;56792;50.644;17.984;2023-12-14T01:18:52;98430.40;;;4.20
69590;BMP180;56792;50.644;17.984;2023-12-14T01:21:23;98426.20;;;4.20
69590;BMP180;56792;50.644;17.984;2023-12-14T01:23:54;98430.00;;;4.20
69590;BMP180;56792;50.644;17.984;2023-12-14T01:26:25;98432.40;;;4.20
69590;BMP180;56792;50.644;17.984;2023-12-14T01:28:56;98437.00;;;4.20
69590;BMP180;56792;50.644;17.984;2023-12-14T01:31:28;98438.20;;;4.20
69590;BMP180;56792;50.644;17.984;2023-12-14T01:33:59;98438.60;;;4.20
69590;BMP180;56792;50.644;17.984;2023-12-14T01:36:30;98443.20;;;4.20
69590;BMP180;56792;50.644;17.984;2023-12-14T01:39:01;98439.00;;;4.20
69590;BMP180;56792;50.644;17.984;2023-12-14T01:41:32;98444.20;;;4.14
69590;BMP180;56792;50.644;17.984;2023-12-14T01:44:04;98440.60;;;4.20
69590;BMP180;56792;50.644;17.984;2023-12-14T01:46:35;98435.60;;;4.20
69590;BMP180;56792;50.644;17.984;2023-12-14T01:49:06;98437.80;;;4.20
69590;BMP180;56792;50.644;17.984;2023-12-14T01:51:37;98437.40;;;4.20
69590;BMP180;56792;50.644;17.984;2023-12-14T01:54:08;98436.20;;;4.20
69590;BMP180;56792;50.644;17.984;2023-12-14T01:56:39;98444.40;;;4.20
69590;BMP180;56792;50.644;17.984;2023-12-14T01:59:10;98444.00;;;4.20
69590;BMP180;56792;50.644;17.984;2023-12-14T02:01:45;98443.60;;;4.20
69590;BMP180;56792;50.644;17.984;2023-12-14T02:04:17;98444.40;;;4.20
69590;BMP180;56792;50.644;17.984;2023-12-14T02:06:48;98447.40;;;4.20
69590;BMP180;56792;50.644;17.984;2023-12-14T02:09:19;98452.60;;;4.20
69590;BMP180;56792;50.644;17.984;2023-12-14T02:11:50;98445.60;;;4.20
69590;BMP180;56792;50.644;17.984;2023-12-14T02:14:24;98449.80;;;4.20
69590;BMP180;56792;50.644;17.984;2023-12-14T02:16:55;98448.80;;;4.20
69590;BMP180;56792;50.644;17.984;2023-12-14T02:19:26;98446.20;;;4.20
69590;BMP180;56792;50.644;17.984;2023-12-14T02:21:57;98443.20;;;4.10
69590;BMP180;56792;50.644;17.984;2023-12-14T02:24:28;98443.60;;;4.12
69590;BMP180;56792;50.644;17.984;2023-12-14T02:26:59;98447.60;;;4.12
69590;BMP180;56792;50.644;17.984;2023-12-14T02:29:30;98450.60;;;4.10
69590;BMP180;56792;50.644;17.984;2023-12-14T02:32:01;98455.20;;;4.10
69590;BMP180;56792;50.644;17.984;2023-12-14T02:34:32;98458.60;;;4.10
69590;BMP180;56792;50.644;17.984;2023-12-14T02:37:04;98462.60;;;4.10
69590;BMP180;56792;50.644;17.984;2023-12-14T02:39:35;98464.00;;;4.10
69590;BMP180;56792;50.644;17.984;2023-12-14T02:42:07;98470.20;;;4.10
69590;BMP180;56792;50.644;17.984;2023-12-14T02:44:38;98473.40;;;4.00
69590;BMP180;56792;50.644;17.984;2023-12-14T02:47:09;98475.00;;;4.00
69590;BMP180;56792;50.644;17.984;2023-12-14T02:49:40;98470.80;;;4.00
69590;BMP180;56792;50.644;17.984;2023-12-14T02:52:11;98475.80;;;4.00
69590;BMP180;56792;50.644;17.984;2023-12-14T02:54:42;98470.80;;;4.00
69590;BMP180;56792;50.644;17.984;2023-12-14T02:57:13;98476.20;;;4.00
69590;BMP180;56792;50.644;17.984;2023-12-14T02:59:44;98473.80;;;4.00
69590;BMP180;56792;50.644;17.984;2023-12-14T03:02:15;98475.60;;;3.94
69590;BMP180;56792;50.644;17.984;2023-12-14T03:04:46;98479.20;;;3.90
69590;BMP180;56792;50.644;17.984;2023-12-14T03:07:17;98480.20;;;3.90
69590;BMP180;56792;50.644;17.984;2023-12-14T03:09:48;98482.80;;;3.90
69590;BMP180;56792;50.644;17.984;2023-12-14T03:12:19;98481.40;;;3.90
69590;BMP180;56792;50.644;17.984;2023-12-14T03:14:50;98488.80;;;3.90
69590;BMP180;56792;50.644;17.984;2023-12-14T03:17:21;98489.00;;;3.80
69590;BMP180;56792;50.644;17.984;2023-12-14T03:19:52;98494.00;;;3.80
69590;BMP180;56792;50.644;17.984;2023-12-14T03:22:23;98499.00;;;3.80
69590;BMP180;56792;50.644;17.984;2023-12-14T03:24:54;98503.60;;;3.80
69590;BMP180;56792;50.644;17.984;2023-12-14T03:27:25;98500.60;;;3.80
69590;BMP180;56792;50.644;17.984;2023-12-14T03:29:57;98509.40;;;3.80
69590;BMP180;56792;50.644;17.984;2023-12-14T03:32:28;98515.20;;;3.80
69590;BMP180;56792;50.644;17.984;2023-12-14T03:34:59;98518.20;;;3.74
69590;BMP180;56792;50.644;17.984;2023-12-14T03:37:30;98521.20;;;3.72
69590;BMP180;56792;50.644;17.984;2023-12-14T03:40:01;98525.80;;;3.70
69590;BMP180;56792;50.644;17.984;2023-12-14T03:42:32;98530.20;;;3.70
69590;BMP180;56792;50.644;17.984;2023-12-14T03:45:03;98541.00;;;3.70
69590;BMP180;56792;50.644;17.984;2023-12-14T03:47:34;98547.20;;;3.70
69590;BMP180;56792;50.644;17.984;2023-12-14T03:50:10;98543.40;;;3.62
69590;BMP180;56792;50.644;17.984;2023-12-14T03:52:41;98553.20;;;3.62
69590;BMP180;56792;50.644;17.984;2023-12-14T03:55:12;98554.80;;;3.60
69590;BMP180;56792;50.644;17.984;2023-12-14T03:57:45;98561.00;;;3.60
69590;BMP180;56792;50.644;17.984;2023-12-14T04:00:17;98566.60;;;3.60
69590;BMP180;56792;50.644;17.984;2023-12-14T04:02:48;98573.60;;;3.62
69590;BMP180;56792;50.644;17.984;2023-12-14T04:05:20;98574.80;;;3.60
69590;BMP180;56792;50.644;17.984;2023-12-14T04:07:51;98575.60;;;3.66
69590;BMP180;56792;50.644;17.984;2023-12-14T04:10:22;98578.60;;;3.68
69590;BMP180;56792;50.644;17.984;2023-12-14T04:12:53;98577.00;;;3.70
69590;BMP180;56792;50.644;17.984;2023-12-14T04:15:24;98576.60;;;3.70
69590;BMP180;56792;50.644;17.984;2023-12-14T04:17:55;98581.20;;;3.70
69590;BMP180;56792;50.644;17.984;2023-12-14T04:20:26;98585.20;;;3.70
69590;BMP180;56792;50.644;17.984;2023-12-14T04:22:57;98589.40;;;3.70
69590;BMP180;56792;50.644;17.984;2023-12-14T04:25:28;98588.60;;;3.80
69590;BMP180;56792;50.644;17.984;2023-12-14T04:27:59;98586.40;;;3.80
69590;BMP180;56792;50.644;17.984;2023-12-14T04:30:30;98588.20;;;3.80
69590;BMP180;56792;50.644;17.984;2023-12-14T04:33:02;98593.80;;;3.80
69590;BMP180;56792;50.644;17.984;2023-12-14T04:35:33;98599.00;;;3.80
69590;BMP180;56792;50.644;17.984;2023-12-14T04:38:06;98599.20;;;3.80
69590;BMP180;56792;50.644;17.984;2023-12-14T04:40:37;98604.20;;;3.80
69590;BMP180;56792;50.644;17.984;2023-12-14T04:43:08;98606.40;;;3.80
69590;BMP180;56792;50.644;17.984;2023-12-14T04:45:39;98608.60;;;3.80
69590;BMP180;56792;50.644;17.984;2023-12-14T04:48:10;98611.20;;;3.80
69590;BMP180;56792;50.644;17.984;2023-12-14T04:50:41;98614.20;;;3.80
69590;BMP180;56792;50.644;17.984;2023-12-14T04:53:12;98617.20;;;3.80
69590;BMP180;56792;50.644;17.984;2023-12-14T04:55:43;98626.20;;;3.80
69590;BMP180;56792;50.644;17.984;2023-12-14T04:58:14;98624.20;;;3.80
69590;BMP180;56792;50.644;17.984;2023-12-14T05:00:45;98633.20;;;3.80
69590;BMP180;56792;50.644;17.984;2023-12-14T05:03:16;98633.00;;;3.80
69590;BMP180;56792;50.644;17.984;2023-12-14T05:05:47;98637.40;;;3.78
69590;BMP180;56792;50.644;17.984;2023-12-14T05:08:18;98642.00;;;3.80
69590;BMP180;56792;50.644;17.984;2023-12-14T05:10:49;98647.40;;;3.80
69590;BMP180;56792;50.644;17.984;2023-12-14T05:13:20;98648.80;;;3.80
69590;BMP180;56792;50.644;17.984;2023-12-14T05:15:52;98656.40;;;3.80
69590;BMP180;56792;50.644;17.984;2023-12-14T05:18:23;98654.00;;;3.80
69590;BMP180;56792;50.644;17.984;2023-12-14T05:20:54;98657.00;;;3.80
69590;BMP180;56792;50.644;17.984;2023-12-14T05:23:25;98659.40;;;3.80
69590;BMP180;56792;50.644;17.984;2023-12-14T05:25:56;98662.40;;;3.80
69590;BMP180;56792;50.644;17.984;2023-12-14T05:28:27;98668.60;;;3.80
69590;BMP180;56792;50.644;17.984;2023-12-14T05:30:58;98669.80;;;3.80
69590;BMP180;56792;50.644;17.984;2023-12-14T05:33:29;98678.80;;;3.80
69590;BMP180;56792;50.644;17.984;2023-12-14T05:36:01;98679.40;;;3.78
69590;BMP180;56792;50.644;17.984;2023-12-14T05:38:32;98679.60;;;3.70
69590;BMP180;56792;50.644;17.984;2023-12-14T05:41:03;98681.00;;;3.76
69590;BMP180;56792;50.644;17.984;2023-12-14T05:43:34;98689.20;;;3.76
69590;BMP180;56792;50.644;17.984;2023-12-14T05:46:06;98693.60;;;3.80
69590;BMP180;56792;50.644;17.984;2023-12-14T05:48:38;98693.40;;;3.72
69590;BMP180;56792;50.644;17.984;2023-12-14T05:51:10;98694.40;;;3.70
69590;BMP180;56792;50.644;17.984;2023-12-14T05:53:41;98699.20;;;3.70
69590;BMP180;56792;50.644;17.984;2023-12-14T05:56:12;98702.00;;;3.70
69590;BMP180;56792;50.644;17.984;2023-12-14T05:58:44;98705.60;;;3.70
69590;BMP180;56792;50.644;17.984;2023-12-14T06:01:15;98710.20;;;3.70
69590;BMP180;56792;50.644;17.984;2023-12-14T06:03:47;98711.00;;;3.70
69590;BMP180;56792;50.644;17.984;2023-12-14T06:06:18;98715.20;;;3.72
69590;BMP180;56792;50.644;17.984;2023-12-14T06:08:49;98714.40;;;3.72
69590;BMP180;56792;50.644;17.984;2023-12-14T06:11:20;98710.20;;;3.70
69590;BMP180;56792;50.644;17.984;2023-12-14T06:13:51;98715.20;;;3.70
69590;BMP180;56792;50.644;17.984;2023-12-14T06:16:22;98721.60;;;3.70
69590;BMP180;56792;50.644;17.984;2023-12-14T06:18:53;98723.60;;;3.70
69590;BMP180;56792;50.644;17.984;2023-12-14T06:21:24;98724.00;;;3.70
69590;BMP180;56792;50.644;17.984;2023-12-14T06:23:58;98733.20;;;3.70
69590;BMP180;56792;50.644;17.984;2023-12-14T06:26:29;98736.60;;;3.70
69590;BMP180;56792;50.644;17.984;2023-12-14T06:29:00;98742.60;;;3.70
69590;BMP180;56792;50.644;17.984;2023-12-14T06:31:31;98746.80;;;3.70
69590;BMP180;56792;50.644;17.984;2023-12-14T06:34:02;98754.80;;;3.70
69590;BMP180;56792;50.644;17.984;2023-12-14T06:36:34;98758.80;;;3.70
69590;BMP180;56792;50.644;17.984;2023-12-14T06:39:05;98766.40;;;3.70
69590;BMP180;56792;50.644;17.984;2023-12-14T06:41:36;98768.00;;;3.70
69590;BMP180;56792;50.644;17.984;2023-12-14T06:44:08;98768.80;;;3.70
69590;BMP180;56792;50.644;17.984;2023-12-14T06:46:39;98770.40;;;3.70
69590;BMP180;56792;50.644;17.984;2023-12-14T06:49:10;98779.80;;;3.72
69590;BMP180;56792;50.644;17.984;2023-12-14T06:51:41;98787.20;;;3.70
69590;BMP180;56792;50.644;17.984;2023-12-14T06:54:12;98791.80;;;3.74
69590;BMP180;56792;50.644;17.984;2023-12-14T06:56:43;98800.80;;;3.72
69590;BMP180;56792;50.644;17.984;2023-12-14T06:59:14;98809.80;;;3.72
69590;BMP180;56792;50.644;17.984;2023-12-14T07:01:45;98813.20;;;3.70
69590;BMP180;56792;50.644;17.984;2023-12-14T07:04:16;98814.80;;;3.70
69590;BMP180;56792;50.644;17.984;2023-12-14T07:06:54;98814.00;;;3.70
69590;BMP180;56792;50.644;17.984;2023-12-14T07:09:25;98816.80;;;3.70
69590;BMP180;56792;50.644;17.984;2023-12-14T07:11:56;98819.00;;;3.70
69590;BMP180;56792;50.644;17.984;2023-12-14T07:14:27;98818.20;;;3.70
69590;BMP180;56792;50.644;17.984;2023-12-14T07:16:58;98823.80;;;3.70
69590;BMP180;56792;50.644;17.984;2023-12-14T07:19:29;98826.60;;;3.70
69590;BMP180;56792;50.644;17.984;2023-12-14T07:22:01;98829.60;;;3.70
69590;BMP180;56792;50.644;17.984;2023-12-14T07:24:32;98834.60;;;3.70
69590;BMP180;56792;50.644;17.984;2023-12-14T07:27:04;98840.40;;;3.70
69590;BMP180;56792;50.644;17.984;2023-12-14T07:29:35;98842.60;;;3.80
69590;BMP180;56792;50.644;17.984;2023-12-14T07:32:07;98844.80;;;3.76
69590;BMP180;56792;50.644;17.984;2023-12-14T07:34:38;98844.20;;;3.80
69590;BMP180;56792;50.644;17.984;2023-12-14T07:37:09;98846.80;;;3.80
69590;BMP180;56792;50.644;17.984;2023-12-14T07:39:41;98852.80;;;3.80
69590;BMP180;56792;50.644;17.984;2023-12-14T07:42:12;98858.20;;;3.80
69590;BMP180;56792;50.644;17.984;2023-12-14T07:44:49;98856.40;;;3.80
69590;BMP180;56792;50.644;17.984;2023-12-14T07:47:20;98862.80;;;3.80
69590;BMP180;56792;50.644;17.984;2023-12-14T07:49:51;98860.60;;;3.80
69590;BMP180;56792;50.644;17.984;2023-12-14T07:52:21;98860.40;;;3.80
69590;BMP180;56792;50.644;17.984;2023-12-14T07:54:52;98862.20;;;3.80
69590;BMP180;56792;50.644;17.984;2023-12-14T07:57:23;98873.40;;;3.80
69590;BMP180;56792;50.644;17.984;2023-12-14T07:59:54;98876.80;;;3.80
69590;BMP180;56792;50.644;17.984;2023-12-14T08:02:26;98875.80;;;3.80
69590;BMP180;56792;50.644;17.984;2023-12-14T08:04:57;98881.20;;;3.80
69590;BMP180;56792;50.644;17.984;2023-12-14T08:07:28;98882.60;;;3.80
69590;BMP180;56792;50.644;17.984;2023-12-14T08:09:59;98888.00;;;3.80
69590;BMP180;56792;50.644;17.984;2023-12-14T08:12:31;98887.60;;;3.80
69590;BMP180;56792;50.644;17.984;2023-12-14T08:15:02;98895.20;;;3.80
69590;BMP180;56792;50.644;17.984;2023-12-14T08:17:33;98902.80;;;3.80
69590;BMP180;56792;50.644;17.984;2023-12-14T08:20:06;98908.40;;;3.70
69590;BMP180;56792;50.644;17.984;2023-12-14T08:22:38;98912.40;;;3.70
69590;BMP180;56792;50.644;17.984;2023-12-14T08:25:15;98915.20;;;3.70
69590;BMP180;56792;50.644;17.984;2023-12-14T08:27:46;98924.40;;;3.70
69590;BMP180;56792;50.644;17.984;2023-12-14T08:30:17;98931.80;;;3.70
69590;BMP180;56792;50.644;17.984;2023-12-14T08:32:48;98934.80;;;3.70
69590;BMP180;56792;50.644;17.984;2023-12-14T08:35:19;98940.40;;;3.70
69590;BMP180;56792;50.644;17.984;2023-12-14T08:37:51;98943.40;;;3.70
69590;BMP180;56792;50.644;17.984;2023-12-14T08:40:22;98956.00;;;3.78
69590;BMP180;56792;50.644;17.984;2023-12-14T08:42:53;98956.00;;;3.80
69590;BMP180;56792;50.644;17.984;2023-12-14T08:45:24;98962.20;;;3.80
69590;BMP180;56792;50.644;17.984;2023-12-14T08:47:55;98964.80;;;3.80
69590;BMP180;56792;50.644;17.984;2023-12-14T08:50:26;98966.20;;;3.80
69590;BMP180;56792;50.644;17.984;2023-12-14T08:52:58;98973.20;;;3.80
69590;BMP180;56792;50.644;17.984;2023-12-14T08:55:29;98970.40;;;3.80
69590;BMP180;56792;50.644;17.984;2023-12-14T08:58:00;98971.80;;;3.80
69590;BMP180;56792;50.644;17.984;2023-12-14T09:00:31;98974.80;;;3.80
69590;BMP180;56792;50.644;17.984;2023-12-14T09:03:02;98980.00;;;3.90
69590;BMP180;56792;50.644;17.984;2023-12-14T09:05:33;98980.20;;;3.90
69590;BMP180;56792;50.644;17.984;2023-12-14T09:08:04;98983.00;;;3.90
69590;BMP180;56792;50.644;17.984;2023-12-14T09:10:35;98985.60;;;3.94
69590;BMP180;56792;50.644;17.984;2023-12-14T09:13:07;98986.40;;;3.92
69590;BMP180;56792;50.644;17.984;2023-12-14T09:15:38;98993.80;;;3.90
69590;BMP180;56792;50.644;17.984;2023-12-14T09:18:09;98995.40;;;3.90
69590;BMP180;56792;50.644;17.984;2023-12-14T09:20:40;99001.00;;;3.90
69590;BMP180;56792;50.644;17.984;2023-12-14T09:23:12;99001.00;;;4.00
69590;BMP180;56792;50.644;17.984;2023-12-14T09:25:43;99002.40;;;4.00
69590;BMP180;56792;50.644;17.984;2023-12-14T09:28:14;99008.80;;;4.00
69590;BMP180;56792;50.644;17.984;2023-12-14T09:30:45;99013.60;;;4.00
69590;BMP180;56792;50.644;17.984;2023-12-14T09:33:16;99014.40;;;4.00
69590;BMP180;56792;50.644;17.984;2023-12-14T09:35:47;99019.00;;;3.90
69590;BMP180;56792;50.644;17.984;2023-12-14T09:38:18;99020.20;;;3.90
69590;BMP180;56792;50.644;17.984;2023-12-14T09:40:49;99025.80;;;3.90
69590;BMP180;56792;50.644;17.984;2023-12-14T09:43:20;99026.60;;;3.90
69590;BMP180;56792;50.644;17.984;2023-12-14T09:45:55;99026.20;;;3.90
69590;BMP180;56792;50.644;17.984;2023-12-14T09:48:26;99024.20;;;3.92
69590;BMP180;56792;50.644;17.984;2023-12-14T09:50:59;99024.60;;;3.90
69590;BMP180;56792;50.644;17.984;2023-12-14T09:53:30;99022.00;;;3.90
69590;BMP180;56792;50.644;17.984;2023-12-14T09:56:01;99024.00;;;3.96
69590;BMP180;56792;50.644;17.984;2023-12-14T09:58:34;99026.20;;;4.00
69590;BMP180;56792;50.644;17.984;2023-12-14T10:01:22;99022.60;;;3.98
69590;BMP180;56792;50.644;17.984;2023-12-14T10:04:10;99024.20;;;3.90
69590;BMP180;56792;50.644;17.984;2023-12-14T10:06:44;99031.00;;;3.94
69590;BMP180;56792;50.644;17.984;2023-12-14T10:09:22;99034.80;;;4.00
69590;BMP180;56792;50.644;17.984;2023-12-14T10:12:07;99040.60;;;4.00
69590;BMP180;56792;50.644;17.984;2023-12-14T10:14:39;99042.40;;;4.00
69590;BMP180;56792;50.644;17.984;2023-12-14T10:17:21;99040.40;;;4.00
69590;BMP180;56792;50.644;17.984;2023-12-14T10:19:58;99048.60;;;4.02
69590;BMP180;56792;50.644;17.984;2023-12-14T10:22:33;99044.20;;;4.10
69590;BMP180;56792;50.644;17.984;2023-12-14T10:25:05;99054.00;;;4.10
69590;BMP180;56792;50.644;17.984;2023-12-14T10:27:40;99051.80;;;4.10
69590;BMP180;56792;50.644;17.984;2023-12-14T10:30:15;99051.60;;;4.10
69590;BMP180;56792;50.644;17.984;2023-12-14T10:32:47;99054.80;;;4.10
69590;BMP180;56792;50.644;17.984;2023-12-14T10:35:18;99058.00;;;4.10
69590;BMP180;56792;50.644;17.984;2023-12-14T10:37:54;99056.60;;;4.10
69590;BMP180;56792;50.644;17.984;2023-12-14T10:40:27;99060.20;;;4.10
69590;BMP180;56792;50.644;17.984;2023-12-14T10:43:01;99057.20;;;4.10
69590;BMP180;56792;50.644;17.984;2023-12-14T10:45:35;99061.80;;;4.10
69590;BMP180;56792;50.644;17.984;2023-12-14T10:48:07;99069.60;;;4.18
69590;BMP180;56792;50.644;17.984;2023-12-14T10:50:39;99066.40;;;4.20
69590;BMP180;56792;50.644;17.984;2023-12-14T10:53:13;99066.60;;;4.20
69590;BMP180;56792;50.644;17.984;2023-12-14T10:55:46;99073.60;;;4.12
69590;BMP180;56792;50.644;17.984;2023-12-14T10:58:20;99076.60;;;4.10
69590;BMP180;56792;50.644;17.984;2023-12-14T11:01:02;99085.00;;;4.10
69590;BMP180;56792;50.644;17.984;2023-12-14T11:03:37;99088.80;;;4.10
69590;BMP180;56792;50.644;17.984;2023-12-14T11:06:27;99095.40;;;4.10
69590;BMP180;56792;50.644;17.984;2023-12-14T11:09:04;99096.60;;;4.10
69590;BMP180;56792;50.644;17.984;2023-12-14T11:11:55;99104.40;;;4.10
69590;BMP180;56792;50.644;17.984;2023-12-14T11:14:27;99108.80;;;4.00
69590;BMP180;56792;50.644;17.984;2023-12-14T11:17:08;99111.40;;;4.04
69590;BMP180;56792;50.644;17.984;2023-12-14T11:19:42;99114.80;;;4.10
69590;BMP180;56792;50.644;17.984;2023-12-14T11:22:24;99119.80;;;4.10
69590;BMP180;56792;50.644;17.984;2023-12-14T11:24:58;99113.80;;;4.10
69590;BMP180;56792;50.644;17.984;2023-12-14T11:27:33;99118.60;;;4.10
69590;BMP180;56792;50.644;17.984;2023-12-14T11:30:16;99121.60;;;4.10
69590;BMP180;56792;50.644;17.984;2023-12-14T11:32:47;99118.80;;;4.10
69590;BMP180;56792;50.644;17.984;2023-12-14T11:35:19;99124.80;;;4.10
69590;BMP180;56792;50.644;17.984;2023-12-14T11:37:50;99127.40;;;4.10
69590;BMP180;56792;50.644;17.984;2023-12-14T11:40:21;99119.20;;;4.16
69590;BMP180;56792;50.644;17.984;2023-12-14T11:43:01;99125.00;;;4.20
69590;BMP180;56792;50.644;17.984;2023-12-14T11:45:37;99128.00;;;4.20
69590;BMP180;56792;50.644;17.984;2023-12-14T11:48:10;99129.20;;;4.10
69590;BMP180;56792;50.644;17.984;2023-12-14T11:50:43;99130.40;;;4.10
69590;BMP180;56792;50.644;17.984;2023-12-14T11:53:14;99135.20;;;4.12
69590;BMP180;56792;50.644;17.984;2023-12-14T11:55:46;99138.40;;;4.10
69590;BMP180;56792;50.644;17.984;2023-12-14T11:58:18;99144.40;;;4.10
69590;BMP180;56792;50.644;17.984;2023-12-14T12:00:49;99148.20;;;4.10
69590;BMP180;56792;50.644;17.984;2023-12-14T12:03:21;99144.80;;;4.10
69590;BMP180;56792;50.644;17.984;2023-12-14T12:05:53;99147.60;;;4.16
69590;BMP180;56792;50.644;17.984;2023-12-14T12:08:24;99147.20;;;4.10
69590;BMP180;56792;50.644;17.984;2023-12-14T12:10:58;99148.40;;;4.10
69590;BMP180;56792;50.644;17.984;2023-12-14T12:13:29;99147.00;;;4.10
69590;BMP180;56792;50.644;17.984;2023-12-14T12:16:00;99146.20;;;4.10
69590;BMP180;56792;50.644;17.984;2023-12-14T12:18:31;99146.40;;;4.20
69590;BMP180;56792;50.644;17.984;2023-12-14T12:21:02;99152.40;;;4.20
69590;BMP180;56792;50.644;17.984;2023-12-14T12:23:36;99155.60;;;4.20
69590;BMP180;56792;50.644;17.984;2023-12-14T12:26:07;99159.60;;;4.20
69590;BMP180;56792;50.644;17.984;2023-12-14T12:28:38;99156.80;;;4.20
69590;BMP180;56792;50.644;17.984;2023-12-14T12:31:09;99154.40;;;4.20
69590;BMP180;56792;50.644;17.984;2023-12-14T12:33:40;99154.00;;;4.20
69590;BMP180;56792;50.644;17.984;2023-12-14T12:36:12;99161.20;;;4.18
69590;BMP180;56792;50.644;17.984;2023-12-14T12:38:43;99160.60;;;4.10
69590;BMP180;56792;50.644;17.984;2023-12-14T12:41:14;99165.60;;;4.10
69590;BMP180;56792;50.644;17.984;2023-12-14T12:43:45;99165.60;;;4.10
69590;BMP180;56792;50.644;17.984;2023-12-14T12:46:16;99168.60;;;4.10
69590;BMP180;56792;50.644;17.984;2023-12-14T12:48:47;99174.80;;;4.10
69590;BMP180;56792;50.644;17.984;2023-12-14T12:51:21;99177.40;;;4.10
69590;BMP180;56792;50.644;17.984;2023-12-14T12:53:52;99183.40;;;4.10
69590;BMP180;56792;50.644;17.984;2023-12-14T12:56:23;99185.00;;;4.10
69590;BMP180;56792;50.644;17.984;2023-12-14T12:58:54;99185.80;;;4.10
69590;BMP180;56792;50.644;17.984;2023-12-14T13:01:26;99189.40;;;4.10
69590;BMP180;56792;50.644;17.984;2023-12-14T13:03:57;99190.20;;;4.10
69590;BMP180;56792;50.644;17.984;2023-12-14T13:06:28;99191.60;;;4.10
69590;BMP180;56792;50.644;17.984;2023-12-14T13:08:59;99195.00;;;4.10
69590;BMP180;56792;50.644;17.984;2023-12-14T13:11:31;99198.20;;;4.06
69590;BMP180;56792;50.644;17.984;2023-12-14T13:14:01;99202.20;;;4.04
69590;BMP180;56792;50.644;17.984;2023-12-14T13:16:38;99200.80;;;4.00
69590;BMP180;56792;50.644;17.984;2023-12-14T13:19:09;99203.40;;;4.00
69590;BMP180;56792;50.644;17.984;2023-12-14T13:21:40;99206.20;;;4.00
69590;BMP180;56792;50.644;17.984;2023-12-14T13:24:11;99206.80;;;4.00
69590;BMP180;56792;50.644;17.984;2023-12-14T13:26:42;99206.00;;;4.00
69590;BMP180;56792;50.644;17.984;2023-12-14T13:29:13;99214.40;;;4.00
69590;BMP180;56792;50.644;17.984;2023-12-14T13:31:44;99218.40;;;4.00
69590;BMP180;56792;50.644;17.984;2023-12-14T13:34:15;99226.40;;;4.00
69590;BMP180;56792;50.644;17.984;2023-12-14T13:36:46;99225.80;;;4.00
69590;BMP180;56792;50.644;17.984;2023-12-14T13:39:17;99235.00;;;4.00
69590;BMP180;56792;50.644;17.984;2023-12-14T13:41:49;99242.20;;;3.92
69590;BMP180;56792;50.644;17.984;2023-12-14T13:44:20;99251.60;;;3.90
69590;BMP180;56792;50.644;17.984;2023-12-14T13:46:51;99255.20;;;3.90
69590;BMP180;56792;50.644;17.984;2023-12-14T13:49:22;99261.20;;;3.90
69590;BMP180;56792;50.644;17.984;2023-12-14T13:51:54;99263.00;;;3.90
69590;BMP180;56792;50.644;17.984;2023-12-14T13:54:25;99271.60;;;3.90
69590;BMP180;56792;50.644;17.984;2023-12-14T13:56:56;99278.00;;;3.90
69590;BMP180;56792;50.644;17.984;2023-12-14T13:59:27;99279.80;;;3.90
69590;BMP180;56792;50.644;17.984;2023-12-14T14:01:58;99282.40;;;3.90
69590;BMP180;56792;50.644;17.984;2023-12-14T14:04:29;99282.20;;;3.90
69590;BMP180;56792;50.644;17.984;2023-12-14T14:07:00;99288.80;;;3.90
69590;BMP180;56792;50.644;17.984;2023-12-14T14:09:31;99289.20;;;3.90
69590;BMP180;56792;50.644;17.984;2023-12-14T14:12:03;99293.20;;;3.90
69590;BMP180;56792;50.644;17.984;2023-12-14T14:14:34;99298.60;;;3.90
69590;BMP180;56792;50.644;17.984;2023-12-14T14:17:05;99305.80;;;3.90
69590;BMP180;56792;50.644;17.984;2023-12-14T14:19:37;99305.20;;;3.90
69590;BMP180;56792;50.644;17.984;2023-12-14T14:22:08;99312.80;;;3.84
69590;BMP180;56792;50.644;17.984;2023-12-14T14:24:39;99317.00;;;3.88
69590;BMP180;56792;50.644;17.984;2023-12-14T14:27:10;99315.40;;;3.80
69590;BMP180;56792;50.644;17.984;2023-12-14T14:29:41;99321.20;;;3.80
69590;BMP180;56792;50.644;17.984;2023-12-14T14:32:12;99325.80;;;3.80
69590;BMP180;56792;50.644;17.984;2023-12-14T14:34:43;99331.20;;;3.80